Terminal Aerodrome Forecast
Issued by NWS Wakefield, VA

Home | Current Version | Previous Version | Text Only | Print | Product List | Glossary On
Versions: 1 2 3 4 5 6 7 8 9 10 11 12 13 14
000
FTUS41 KAKQ 222339
TAFECG
TAF
KECG 222339Z 2300/2324 15006KT P6SM OVC060
     FM230900 VRB03KT 5SM BR OVC060
     FM231300 17004KT P6SM OVC060
     FM231900 17007KT P6SM SCT090=

USA.gov is the U.S. government's official web portal to all federal, state and local government web resources and services.